createdAt,value
2023-01-20T00:01:26.799Z,26.98
2023-01-20T00:03:54.648Z,27.63
2023-01-20T00:06:27.982Z,26.83
2023-01-20T00:09:01.797Z,26.77
2023-01-20T00:11:31.402Z,22.55
2023-01-20T00:13:59.961Z,28.45
2023-01-20T00:16:34.104Z,26.67
2023-01-20T00:19:00.659Z,27.88
2023-01-20T00:21:27.114Z,26.80
2023-01-20T00:23:53.574Z,26.52
2023-01-20T00:26:21.939Z,23.92
2023-01-20T00:28:49.444Z,25.17
2023-01-20T00:31:18.268Z,26.23
2023-01-20T00:33:45.338Z,27.58
2023-01-20T00:36:12.994Z,27.25
2023-01-20T00:38:39.740Z,27.30
2023-01-20T00:41:06.909Z,26.23
2023-01-20T00:43:33.612Z,26.10
2023-01-20T00:46:00.128Z,27.75
2023-01-20T00:48:26.588Z,25.52
2023-01-20T00:50:53.058Z,29.85
2023-01-20T00:53:19.472Z,29.73
2023-01-20T00:55:46.025Z,29.67
2023-01-20T00:58:12.479Z,32.22
2023-01-20T01:00:39.005Z,30.63
2023-01-20T01:03:08.162Z,30.95
2023-01-20T01:05:34.557Z,29.88
2023-01-20T01:08:01.029Z,31.58
2023-01-20T01:10:27.458Z,31.20
2023-01-20T01:12:53.944Z,30.58
2023-01-20T01:15:20.385Z,30.98
2023-01-20T01:17:46.806Z,32.60
2023-01-20T01:20:13.955Z,30.33
2023-01-20T01:22:40.660Z,32.90
2023-01-20T01:25:07.550Z,30.23
2023-01-20T01:27:33.998Z,32.65
2023-01-20T01:30:00.458Z,33.30
2023-01-20T01:32:27.137Z,30.95
2023-01-20T01:34:53.647Z,28.05
2023-01-20T01:37:20.057Z,29.33
2023-01-20T01:39:46.508Z,29.85
2023-01-20T01:42:14.091Z,28.50
2023-01-20T01:45:20.648Z,27.83
2023-01-20T01:47:54.958Z,29.17
2023-01-20T01:50:25.643Z,29.35
2023-01-20T01:52:54.214Z,22.77
2023-01-20T01:55:23.183Z,27.58
2023-01-20T01:57:50.029Z,26.48
2023-01-20T02:00:16.617Z,27.65
2023-01-20T02:02:43.871Z,25.65
2023-01-20T02:05:12.178Z,25.48
2023-01-20T02:07:39.185Z,27.60
2023-01-20T02:10:06.337Z,26.50
2023-01-20T02:12:32.855Z,26.73
2023-01-20T02:15:01.719Z,27.83
2023-01-20T02:17:35.628Z,27.58
2023-01-20T02:20:14.165Z,28.60
2023-01-20T02:22:46.539Z,26.42
2023-01-20T02:25:46.993Z,27.27
2023-01-20T02:28:30.687Z,24.73
2023-01-20T02:31:15.976Z,29.25
2023-01-20T02:34:02.849Z,30.38
2023-01-20T02:36:33.795Z,28.10
2023-01-20T02:41:42.264Z,28.65
2023-01-20T02:44:16.492Z,28.60
2023-01-20T02:47:00.923Z,31.58
2023-01-20T02:49:32.848Z,29.63
2023-01-20T02:52:10.998Z,26.20
2023-01-20T02:54:39.965Z,31.67
2023-01-20T02:57:09.397Z,31.15
2023-01-20T02:59:39.521Z,32.33
2023-01-20T03:02:11.414Z,28.63
2023-01-20T03:04:45.418Z,32.28
2023-01-20T03:07:12.804Z,35.60
2023-01-20T03:09:44.251Z,35.60
2023-01-20T03:12:19.326Z,35.50
2023-01-20T03:14:45.773Z,34.70
2023-01-20T03:17:12.238Z,31.77
2023-01-20T03:19:38.661Z,33.13
2023-01-20T03:22:05.208Z,32.65
2023-01-20T03:24:33.439Z,26.85
2023-01-20T03:27:00.048Z,28.25
2023-01-20T03:29:26.606Z,27.55
2023-01-20T03:31:57.485Z,26.70
2023-01-20T03:34:25.396Z,25.20
2023-01-20T03:36:53.296Z,26.17
2023-01-20T03:39:20.224Z,24.90
2023-01-20T03:42:01.882Z,25.83
2023-01-20T03:45:06.657Z,26.88
2023-01-20T03:48:02.917Z,26.15
2023-01-20T03:50:41.765Z,28.13
2023-01-20T03:53:35.794Z,25.63
2023-01-20T03:56:14.873Z,24.95
2023-01-20T03:58:56.607Z,25.83
2023-01-20T04:01:30.910Z,24.90
2023-01-20T04:03:57.930Z,24.58
2023-01-20T04:06:26.489Z,26.02
2023-01-20T04:08:56.926Z,25.67
2023-01-20T04:11:23.822Z,24.08
2023-01-20T04:13:50.760Z,23.55
2023-01-20T04:16:18.089Z,20.33
2023-01-20T04:18:47.497Z,22.08
2023-01-20T04:21:40.529Z,25.65
2023-01-20T04:24:25.213Z,21.08
2023-01-20T04:26:51.697Z,20.52
2023-01-20T04:29:18.187Z,21.55
2023-01-20T04:31:44.699Z,21.65
2023-01-20T04:34:13.742Z,20.48
2023-01-20T04:36:40.141Z,22.17
2023-01-20T04:39:06.644Z,19.77
2023-01-20T04:41:33.082Z,21.23
2023-01-20T04:43:59.463Z,20.40
2023-01-20T04:46:26.050Z,22.95
2023-01-20T04:48:52.451Z,21.05
2023-01-20T04:51:18.874Z,20.58
2023-01-20T04:53:45.357Z,21.77
2023-01-20T04:56:13.462Z,21.60
2023-01-20T04:58:40.455Z,21.50
2023-01-20T05:01:07.235Z,22.13
2023-01-20T05:06:18.864Z,20.58
2023-01-20T05:09:00.395Z,21.20
2023-01-20T05:11:26.930Z,21.95
2023-01-20T05:13:53.495Z,21.98
2023-01-20T05:16:23.935Z,21.63
2023-01-20T05:18:50.701Z,20.75
2023-01-20T05:21:17.124Z,20.75
2023-01-20T05:23:43.552Z,21.38
2023-01-20T05:26:11.481Z,22.23
2023-01-20T05:28:38.053Z,24.83
2023-01-20T05:31:04.669Z,21.58
2023-01-20T05:33:31.177Z,23.17
2023-01-20T05:35:57.606Z,24.98
2023-01-20T05:38:24.089Z,22.80
2023-01-20T05:40:50.514Z,21.70
2023-01-20T05:43:16.937Z,20.98
2023-01-20T05:45:43.415Z,20.65
2023-01-20T05:48:09.873Z,20.60
2023-01-20T05:50:36.466Z,21.55
2023-01-20T05:53:02.973Z,23.52
2023-01-20T05:55:29.423Z,19.95
2023-01-20T05:57:55.837Z,20.35
2023-01-20T06:00:22.735Z,19.60
2023-01-20T06:02:49.168Z,18.83
2023-01-20T06:05:15.960Z,17.50
2023-01-20T06:07:43.373Z,17.33
2023-01-20T06:10:10.516Z,16.52
2023-01-20T06:12:36.955Z,18.05
2023-01-20T06:15:04.160Z,17.58
2023-01-20T06:17:30.594Z,17.83
2023-01-20T06:19:57.216Z,17.92
2023-01-20T06:22:30.356Z,18.08
2023-01-20T06:24:57.503Z,18.48
2023-01-20T06:27:23.946Z,19.58
2023-01-20T06:29:50.866Z,19.55
2023-01-20T06:32:17.461Z,17.52
2023-01-20T06:34:43.864Z,18.70
2023-01-20T06:37:10.290Z,17.95
2023-01-20T06:39:37.653Z,16.13
2023-01-20T06:42:04.173Z,17.13
2023-01-20T06:44:30.844Z,16.80
2023-01-20T06:46:57.990Z,15.75
2023-01-20T06:49:24.463Z,17.05
2023-01-20T06:51:50.978Z,18.00
2023-01-20T06:54:17.433Z,17.33
2023-01-20T06:56:43.942Z,16.95
2023-01-20T06:59:11.245Z,18.55
2023-01-20T07:01:38.010Z,19.95
2023-01-20T07:04:04.502Z,17.02
2023-01-20T07:06:33.513Z,18.17
2023-01-20T07:09:00.886Z,19.08
2023-01-20T07:11:28.041Z,19.73
2023-01-20T07:13:54.814Z,18.13
2023-01-20T07:16:21.297Z,18.45
2023-01-20T07:18:50.813Z,17.13
2023-01-20T07:21:17.947Z,16.25
2023-01-20T07:23:44.973Z,16.38
2023-01-20T07:26:22.601Z,15.68
2023-01-20T07:28:49.278Z,14.80
2023-01-20T07:31:17.812Z,15.77
2023-01-20T07:33:44.581Z,18.30
2023-01-20T07:36:12.459Z,15.85
2023-01-20T07:38:39.399Z,15.45
2023-01-20T07:41:10.698Z,17.65
2023-01-20T07:43:37.480Z,16.92
2023-01-20T07:46:05.133Z,16.58
2023-01-20T07:48:33.017Z,17.83
2023-01-20T07:51:05.606Z,17.08
2023-01-20T07:53:36.702Z,17.25
2023-01-20T07:58:34.585Z,17.58
2023-01-20T08:01:08.504Z,17.77
2023-01-20T08:03:35.747Z,18.45
2023-01-20T08:06:06.639Z,19.63
2023-01-20T08:08:33.612Z,19.40
2023-01-20T08:11:01.394Z,19.10
2023-01-20T08:13:31.553Z,19.67
2023-01-20T08:16:05.605Z,17.10
2023-01-20T08:18:32.808Z,18.65
2023-01-20T08:20:59.933Z,19.73
2023-01-20T08:23:26.514Z,19.20
2023-01-20T08:26:01.942Z,19.23
2023-01-20T08:28:29.716Z,16.33
2023-01-20T08:31:07.061Z,18.38
2023-01-20T08:33:33.788Z,16.83
2023-01-20T08:36:12.424Z,18.98
2023-01-20T08:38:39.448Z,17.85
2023-01-20T08:41:12.763Z,17.00
2023-01-20T08:43:39.303Z,18.15
2023-01-20T08:46:08.826Z,17.48
2023-01-20T08:48:36.585Z,15.48
2023-01-20T08:51:05.274Z,16.98
2023-01-20T08:53:31.750Z,16.70
2023-01-20T08:55:59.570Z,16.95
2023-01-20T08:58:26.520Z,17.77
2023-01-20T09:00:54.106Z,19.08
2023-01-20T09:03:21.140Z,17.05
2023-01-20T09:05:47.878Z,18.60
2023-01-20T09:08:17.171Z,18.67
2023-01-20T09:10:44.493Z,20.05
2023-01-20T09:13:11.328Z,18.92
2023-01-20T09:15:37.920Z,19.23
2023-01-20T09:18:04.747Z,19.10
2023-01-20T09:20:31.251Z,19.48
2023-01-20T09:23:02.745Z,20.55
2023-01-20T09:25:29.219Z,16.02
2023-01-20T09:27:55.621Z,19.83
2023-01-20T09:30:22.149Z,18.08
2023-01-20T09:32:53.070Z,19.13
2023-01-20T09:35:19.498Z,16.60
2023-01-20T09:38:04.586Z,18.77
2023-01-20T09:41:27.682Z,18.73
2023-01-20T09:44:10.516Z,19.08
2023-01-20T09:47:20.687Z,19.83
2023-01-20T09:50:11.839Z,18.65
2023-01-20T09:55:32.355Z,13.18
2023-01-20T09:58:05.673Z,17.52
2023-01-20T10:00:33.499Z,15.90
2023-01-20T10:03:10.037Z,15.95
2023-01-20T10:05:40.182Z,16.23
2023-01-20T10:08:22.371Z,15.63
2023-01-20T10:10:50.045Z,15.45
2023-01-20T10:13:19.523Z,15.32
2023-01-20T10:15:53.374Z,15.60
2023-01-20T10:18:37.182Z,15.18
2023-01-20T10:21:14.840Z,15.27
2023-01-20T10:23:50.721Z,15.48
2023-01-20T10:26:46.653Z,15.63
2023-01-20T10:29:22.004Z,14.30
2023-01-20T10:31:54.141Z,16.25
2023-01-20T10:34:22.460Z,14.93
2023-01-20T10:37:05.866Z,16.40
2023-01-20T10:39:54.292Z,15.48
2023-01-20T10:42:20.958Z,13.68
2023-01-20T10:44:48.465Z,13.82
2023-01-20T10:47:21.436Z,14.20
2023-01-20T10:50:12.992Z,13.57
2023-01-20T10:52:54.760Z,14.85
2023-01-20T10:55:50.671Z,14.90
2023-01-20T10:58:29.188Z,14.65
2023-01-20T11:00:56.439Z,14.00
2023-01-20T11:03:23.411Z,11.73
2023-01-20T11:05:51.347Z,11.52
2023-01-20T11:08:23.290Z,11.75
2023-01-20T11:10:54.490Z,10.98
2023-01-20T11:13:21.097Z,11.07
2023-01-20T11:15:49.922Z,13.75
2023-01-20T11:18:16.351Z,14.43
2023-01-20T11:20:51.798Z,17.45
2023-01-20T11:23:52.168Z,17.80
2023-01-20T11:26:36.326Z,17.95
2023-01-20T11:29:02.781Z,17.48
2023-01-20T11:31:41.512Z,18.50
2023-01-20T11:34:30.823Z,17.40
2023-01-20T11:37:06.520Z,15.85
2023-01-20T11:39:43.263Z,14.20
2023-01-20T11:42:22.103Z,14.40
2023-01-20T11:44:54.554Z,14.00
2023-01-20T11:47:24.817Z,13.10
2023-01-20T11:50:25.544Z,13.60
2023-01-20T11:52:52.532Z,12.45
2023-01-20T11:55:22.189Z,13.13
2023-01-20T11:57:52.912Z,10.95
2023-01-20T12:00:19.351Z,12.20
2023-01-20T12:03:02.563Z,11.82
2023-01-20T12:05:37.340Z,9.52
2023-01-20T12:08:05.015Z,9.23
2023-01-20T12:10:35.735Z,9.73
2023-01-20T12:13:05.775Z,10.00
2023-01-20T12:15:34.121Z,8.63
2023-01-20T12:18:01.933Z,9.02
2023-01-20T12:20:30.501Z,7.75
2023-01-20T12:23:21.343Z,9.45
2023-01-20T12:26:01.116Z,7.45
2023-01-20T12:28:38.837Z,7.55
2023-01-20T12:31:07.909Z,7.70
2023-01-20T12:33:37.841Z,8.32
2023-01-20T12:36:26.069Z,8.15
2023-01-20T12:39:11.152Z,9.90
2023-01-20T12:41:46.663Z,8.57
2023-01-20T12:44:31.226Z,9.10
2023-01-20T12:47:17.349Z,8.32
2023-01-20T12:49:46.695Z,10.15
2023-01-20T12:52:26.284Z,8.32
2023-01-20T12:54:58.648Z,6.95
2023-01-20T12:57:38.830Z,6.93
2023-01-20T13:00:33.475Z,6.32
2023-01-20T13:03:21.562Z,7.72
2023-01-20T13:06:09.413Z,7.10
2023-01-20T13:08:45.101Z,8.35
2023-01-20T13:11:33.695Z,6.82
2023-01-20T13:14:21.800Z,7.13
2023-01-20T13:17:02.674Z,6.18
2023-01-20T13:19:34.513Z,6.80
2023-01-20T13:22:14.888Z,9.90
2023-01-20T13:24:44.397Z,7.10
2023-01-20T13:27:13.751Z,8.00
2023-01-20T13:29:44.122Z,7.03
2023-01-20T13:32:33.614Z,7.00
2023-01-20T13:35:02.132Z,10.60
2023-01-20T13:37:31.133Z,8.15
2023-01-20T13:39:59.826Z,7.95
2023-01-20T13:42:38.657Z,7.88
2023-01-20T13:45:11.247Z,8.13
2023-01-20T13:47:59.351Z,8.23
2023-01-20T13:50:37.127Z,7.00
2023-01-20T13:53:11.566Z,6.47
2023-01-20T13:55:59.278Z,7.30
2023-01-20T13:58:33.702Z,7.07
2023-01-20T14:01:07.735Z,8.98
2023-01-20T14:03:36.381Z,7.18
2023-01-20T14:06:05.425Z,6.93
2023-01-20T14:08:38.821Z,11.48
2023-01-20T14:11:21.632Z,8.15
2023-01-20T14:13:59.654Z,9.02
2023-01-20T14:16:28.045Z,8.60
2023-01-20T14:18:56.970Z,8.15
2023-01-20T14:21:28.480Z,7.63
2023-01-20T14:23:55.308Z,7.28
2023-01-20T14:26:27.093Z,7.25
2023-01-20T14:28:54.888Z,7.72
2023-01-20T14:31:40.632Z,7.97
2023-01-20T14:34:22.299Z,7.57
2023-01-20T14:36:48.867Z,8.38
2023-01-20T14:39:19.951Z,7.35
2023-01-20T14:41:50.412Z,7.93
2023-01-20T14:44:28.864Z,7.07
2023-01-20T14:46:59.640Z,9.50
2023-01-20T14:49:33.218Z,8.07
2023-01-20T14:52:01.015Z,6.70
2023-01-20T14:54:49.702Z,7.07
2023-01-20T14:57:26.238Z,7.53
2023-01-20T15:00:25.601Z,5.95
2023-01-20T15:03:09.498Z,6.18
2023-01-20T15:05:39.204Z,7.57
2023-01-20T15:08:16.673Z,6.40
2023-01-20T15:10:43.197Z,6.53
2023-01-20T15:13:27.362Z,6.20
2023-01-20T15:16:07.222Z,6.43
2023-01-20T15:18:33.847Z,7.75
2023-01-20T15:21:23.817Z,6.90
2023-01-20T15:23:52.652Z,7.32
2023-01-20T15:26:28.742Z,5.88
2023-01-20T15:28:56.125Z,6.97
2023-01-20T15:31:23.245Z,7.10
2023-01-20T15:33:50.090Z,6.50
2023-01-20T15:36:16.546Z,7.55
2023-01-20T15:38:43.064Z,7.50
2023-01-20T15:41:12.672Z,7.45
2023-01-20T15:43:39.487Z,6.63
2023-01-20T15:46:17.073Z,7.97
2023-01-20T15:48:44.850Z,7.65
2023-01-20T15:51:16.347Z,7.25
2023-01-20T15:53:43.664Z,7.47
2023-01-20T15:56:18.531Z,9.27
2023-01-20T15:58:45.770Z,8.15
2023-01-20T16:01:14.854Z,8.15
2023-01-20T16:03:41.674Z,8.07
2023-01-20T16:06:16.191Z,8.23
2023-01-20T16:08:46.261Z,9.45
2023-01-20T16:11:13.725Z,9.38
2023-01-20T16:13:40.894Z,8.05
2023-01-20T16:16:15.967Z,9.52
2023-01-20T16:18:43.003Z,8.45
2023-01-20T16:21:14.216Z,8.23
2023-01-20T16:23:40.868Z,8.93
2023-01-20T16:26:20.241Z,9.30
2023-01-20T16:28:46.768Z,8.85
2023-01-20T16:31:16.495Z,10.20
2023-01-20T16:33:43.054Z,8.85
2023-01-20T16:36:14.482Z,9.15
2023-01-20T16:38:41.398Z,8.70
2023-01-20T16:41:13.822Z,10.73
2023-01-20T16:43:43.709Z,9.27
2023-01-20T16:46:24.099Z,10.55
2023-01-20T16:48:51.109Z,8.68
2023-01-20T16:51:22.992Z,8.50
2023-01-20T16:53:49.479Z,9.07
2023-01-20T16:56:17.781Z,9.88
2023-01-20T16:58:47.341Z,8.48
2023-01-20T17:01:13.923Z,9.70
2023-01-20T17:03:41.399Z,9.95
2023-01-20T17:06:17.705Z,9.80
2023-01-20T17:08:48.992Z,10.32
2023-01-20T17:13:45.558Z,10.65
2023-01-20T17:16:12.161Z,11.50
2023-01-20T17:18:44.571Z,12.88
2023-01-20T17:21:12.393Z,10.60
2023-01-20T17:23:39.265Z,11.20
2023-01-20T17:26:06.466Z,12.77
2023-01-20T17:28:33.468Z,12.73
2023-01-20T17:31:05.134Z,12.43
2023-01-20T17:33:31.608Z,13.43
2023-01-20T17:35:59.696Z,12.05
2023-01-20T17:38:28.541Z,12.70
2023-01-20T17:40:55.138Z,13.05
2023-01-20T17:43:21.530Z,13.10
2023-01-20T17:45:48.078Z,13.38
2023-01-20T17:48:14.579Z,20.02
2023-01-20T17:50:41.105Z,17.98
2023-01-20T17:53:07.519Z,14.75
2023-01-20T17:55:33.977Z,13.98
2023-01-20T17:58:00.429Z,12.88
2023-01-20T18:00:26.871Z,13.25
2023-01-20T18:02:55.662Z,17.17
2023-01-20T18:05:22.230Z,13.30
2023-01-20T18:07:49.889Z,13.38
2023-01-20T18:10:17.374Z,13.25
2023-01-20T18:12:44.363Z,12.13
2023-01-20T18:15:10.974Z,13.30
2023-01-20T18:17:38.147Z,12.88
2023-01-20T18:20:05.350Z,12.40
2023-01-20T18:22:31.874Z,13.02
2023-01-20T18:24:58.412Z,11.82
2023-01-20T18:27:24.852Z,11.85
2023-01-20T18:29:51.329Z,12.15
2023-01-20T18:32:17.788Z,12.60
2023-01-20T18:34:44.341Z,12.73
2023-01-20T18:37:10.845Z,11.63
2023-01-20T18:39:37.369Z,11.90
2023-01-20T18:42:03.993Z,10.98
2023-01-20T18:44:30.506Z,12.85
2023-01-20T18:46:56.975Z,12.50
2023-01-20T18:49:23.497Z,12.82
2023-01-20T18:51:50.007Z,16.15
2023-01-20T18:54:18.292Z,13.10
2023-01-20T18:56:45.040Z,15.95
2023-01-20T18:59:11.792Z,15.70
2023-01-20T19:01:40.411Z,14.52
2023-01-20T19:04:08.982Z,15.27
2023-01-20T19:06:39.311Z,15.27
2023-01-20T19:09:06.651Z,15.63
2023-01-20T19:11:36.078Z,14.05
2023-01-20T19:14:03.210Z,20.10
2023-01-20T19:16:32.578Z,19.02
2023-01-20T19:19:03.534Z,17.40
2023-01-20T19:24:01.468Z,14.90
2023-01-20T19:26:28.532Z,15.73
2023-01-20T19:29:03.772Z,16.35
2023-01-20T19:31:32.156Z,13.88
2023-01-20T19:33:59.326Z,15.35
2023-01-20T19:36:25.939Z,14.88
2023-01-20T19:38:52.497Z,16.70
2023-01-20T19:41:27.019Z,14.68
2023-01-20T19:43:57.866Z,17.63
2023-01-20T19:46:29.503Z,16.77
2023-01-20T19:48:57.593Z,15.68
2023-01-20T19:51:25.091Z,21.08
2023-01-20T19:53:57.978Z,17.33
2023-01-20T19:56:26.688Z,19.23
2023-01-20T19:58:54.301Z,18.63
2023-01-20T20:01:23.577Z,18.75
2023-01-20T20:03:51.148Z,19.13
2023-01-20T20:06:27.998Z,19.27
2023-01-20T20:08:57.453Z,19.40
2023-01-20T20:11:23.884Z,18.02
2023-01-20T20:13:53.750Z,19.65
2023-01-20T20:16:20.340Z,18.80
2023-01-20T20:18:53.986Z,20.17
2023-01-20T20:21:20.911Z,20.02
2023-01-20T20:23:51.953Z,18.20
2023-01-20T20:26:19.051Z,19.10
2023-01-20T20:28:45.617Z,19.60
2023-01-20T20:31:12.222Z,19.58
2023-01-20T20:33:38.812Z,19.23
2023-01-20T20:36:09.798Z,19.00
2023-01-20T20:38:36.711Z,23.00
2023-01-20T20:41:04.632Z,27.00
2023-01-20T20:43:31.071Z,23.15
2023-01-20T20:46:05.757Z,19.95
2023-01-20T20:48:33.589Z,19.85
2023-01-20T20:51:15.520Z,20.38
2023-01-20T20:53:45.641Z,20.40
2023-01-20T20:56:13.978Z,21.17
2023-01-20T20:58:59.546Z,19.50
2023-01-20T21:01:29.002Z,20.58
2023-01-20T21:03:57.635Z,19.02
2023-01-20T21:06:24.722Z,21.83
2023-01-20T21:08:51.407Z,20.55
2023-01-20T21:11:20.526Z,21.67
2023-01-20T21:13:49.383Z,22.05
2023-01-20T21:16:22.676Z,20.92
2023-01-20T21:18:52.190Z,21.13
2023-01-20T21:21:19.705Z,22.80
2023-01-20T21:23:54.146Z,21.95
2023-01-20T21:26:21.053Z,21.40
2023-01-20T21:28:49.408Z,20.23
2023-01-20T21:31:22.248Z,22.08
2023-01-20T21:33:53.640Z,21.08
2023-01-20T21:36:20.467Z,21.00
2023-01-20T21:38:47.060Z,21.83
2023-01-20T21:41:14.585Z,24.13
2023-01-20T21:44:01.741Z,21.75
2023-01-20T21:46:30.339Z,21.65
2023-01-20T21:49:15.555Z,23.02
2023-01-20T21:52:00.786Z,23.50
2023-01-20T21:54:31.459Z,21.77
2023-01-20T21:56:58.603Z,22.45
2023-01-20T21:59:25.609Z,22.25
2023-01-20T22:01:52.254Z,21.30
2023-01-20T22:04:19.491Z,22.63
2023-01-20T22:06:46.151Z,23.00
2023-01-20T22:09:12.764Z,22.55
2023-01-20T22:11:39.288Z,22.30
2023-01-20T22:14:05.956Z,21.08
2023-01-20T22:16:32.632Z,23.73
2023-01-20T22:18:59.295Z,21.75
2023-01-20T22:21:26.320Z,24.55
2023-01-20T22:23:53.675Z,23.02
2023-01-20T22:26:20.154Z,22.45
2023-01-20T22:28:46.579Z,23.10
2023-01-20T22:31:19.882Z,23.48
2023-01-20T22:33:51.645Z,23.17
2023-01-20T22:36:20.351Z,22.83
2023-01-20T22:38:46.980Z,22.17
2023-01-20T22:41:13.650Z,23.27
2023-01-20T22:43:43.821Z,24.95
2023-01-20T22:46:13.036Z,21.92
2023-01-20T22:48:39.735Z,21.77
2023-01-20T22:51:08.508Z,23.08
2023-01-20T22:53:35.230Z,22.88
2023-01-20T22:56:13.211Z,21.70
2023-01-20T22:58:40.543Z,23.90
2023-01-20T23:01:17.704Z,23.65
2023-01-20T23:03:44.877Z,22.45
2023-01-20T23:06:11.944Z,21.80
2023-01-20T23:08:40.122Z,22.08
2023-01-20T23:11:12.739Z,22.30
2023-01-20T23:13:39.686Z,25.75
2023-01-20T23:16:10.076Z,21.70
2023-01-20T23:18:36.834Z,23.17
2023-01-20T23:21:05.823Z,24.10
2023-01-20T23:23:32.990Z,23.92
2023-01-20T23:26:11.978Z,23.63
2023-01-20T23:28:38.487Z,21.35
2023-01-20T23:31:07.344Z,21.77
2023-01-20T23:33:33.878Z,24.25
2023-01-20T23:36:08.369Z,23.05
2023-01-20T23:38:34.906Z,22.63
2023-01-20T23:41:02.462Z,22.65
2023-01-20T23:43:30.171Z,23.42
2023-01-20T23:46:00.926Z,25.42
2023-01-20T23:48:28.622Z,22.50
2023-01-20T23:50:59.707Z,24.10
2023-01-20T23:53:27.857Z,24.13
2023-01-20T23:56:26.928Z,23.13
2023-01-20T23:58:53.356Z,24.65
